createdAt,value
2019-04-27T00:00:23.681Z,18.55
2019-04-27T00:03:02.091Z,18.90
2019-04-27T00:05:35.021Z,18.35
2019-04-27T00:08:06.473Z,20.23
2019-04-27T00:10:44.174Z,18.17
2019-04-27T00:13:15.206Z,21.62
2019-04-27T00:15:49.906Z,19.02
2019-04-27T00:18:23.469Z,15.18
2019-04-27T00:21:03.571Z,17.80
2019-04-27T00:23:31.332Z,19.73
2019-04-27T00:26:00.555Z,17.83
2019-04-27T00:28:29.754Z,19.85
2019-04-27T00:30:58.958Z,19.80
2019-04-27T00:33:28.128Z,19.00
2019-04-27T00:36:03.974Z,18.23
2019-04-27T00:38:38.555Z,17.45
2019-04-27T00:41:10.149Z,18.73
2019-04-27T00:43:39.334Z,16.87
2019-04-27T00:46:08.609Z,16.12
2019-04-27T00:48:37.808Z,13.30
2019-04-27T00:51:07.057Z,13.62
2019-04-27T00:53:36.330Z,13.53
2019-04-27T00:56:23.621Z,12.97
2019-04-27T00:58:56.493Z,15.63
2019-04-27T01:01:29.949Z,17.00
2019-04-27T01:04:03.730Z,17.23
2019-04-27T01:06:33.602Z,19.63
2019-04-27T01:09:03.365Z,18.73
2019-04-27T01:11:31.013Z,17.17
2019-04-27T01:14:00.203Z,17.50
2019-04-27T01:16:29.465Z,20.43
2019-04-27T01:18:59.006Z,17.70
2019-04-27T01:21:29.527Z,19.07
2019-04-27T01:23:58.917Z,18.48
2019-04-27T01:26:51.489Z,18.27
2019-04-27T01:29:22.035Z,17.90
2019-04-27T01:31:51.216Z,18.37
2019-04-27T01:34:20.416Z,16.52
2019-04-27T01:36:50.849Z,17.30
2019-04-27T01:39:20.042Z,17.00
2019-04-27T01:41:49.267Z,17.25
2019-04-27T01:44:19.400Z,16.13
2019-04-27T01:46:48.680Z,16.67
2019-04-27T01:49:16.957Z,15.20
2019-04-27T01:51:46.194Z,14.53
2019-04-27T01:54:15.387Z,13.70
2019-04-27T01:56:44.576Z,17.33
2019-04-27T01:59:13.841Z,18.05
2019-04-27T02:01:55.238Z,19.23
2019-04-27T02:04:33.793Z,21.97
2019-04-27T02:07:05.048Z,22.42
2019-04-27T02:09:34.274Z,22.75
2019-04-27T02:12:03.501Z,22.13
2019-04-27T02:14:32.680Z,20.90
2019-04-27T02:17:01.852Z,27.00
2019-04-27T02:19:31.021Z,19.80
2019-04-27T02:22:00.262Z,21.70
2019-04-27T02:24:29.465Z,21.27
2019-04-27T02:26:58.796Z,19.83
2019-04-27T02:29:34.375Z,20.75
2019-04-27T02:32:10.284Z,23.40
2019-04-27T02:34:41.513Z,19.80
2019-04-27T02:37:10.736Z,17.20
2019-04-27T02:39:40.107Z,20.27
2019-04-27T02:42:10.123Z,19.10
2019-04-27T02:44:40.470Z,21.50
2019-04-27T02:47:10.489Z,18.40
2019-04-27T02:49:40.400Z,17.10
2019-04-27T02:52:11.382Z,15.40
2019-04-27T02:54:40.574Z,16.33
2019-04-27T02:57:10.300Z,17.03
2019-04-27T02:59:39.940Z,15.87
2019-04-27T03:02:26.552Z,19.40
2019-04-27T03:04:55.753Z,19.20
2019-04-27T03:07:24.922Z,20.27
2019-04-27T03:09:54.193Z,19.77
2019-04-27T03:12:24.829Z,18.50
2019-04-27T03:15:00.368Z,19.60
2019-04-27T03:19:39.847Z,20.60
2019-04-27T03:22:13.585Z,22.57
2019-04-27T03:24:49.942Z,20.30
2019-04-27T03:27:20.347Z,20.70
2019-04-27T03:29:49.951Z,19.23
2019-04-27T03:32:22.698Z,20.13
2019-04-27T03:34:52.105Z,20.90
2019-04-27T03:37:17.202Z,20.33
2019-04-27T03:39:46.378Z,22.77
2019-04-27T03:42:15.719Z,20.80
2019-04-27T03:44:45.061Z,20.20
2019-04-27T03:47:14.251Z,20.27
2019-04-27T03:49:43.450Z,18.30
2019-04-27T03:53:20.573Z,18.93
2019-04-27T03:55:50.709Z,18.23
2019-04-27T03:58:39.940Z,17.57
2019-04-27T04:01:10.511Z,19.07
2019-04-27T04:03:39.316Z,16.83
2019-04-27T04:06:07.542Z,15.80
2019-04-27T04:08:36.762Z,16.97
2019-04-27T04:11:10.384Z,15.90
2019-04-27T04:13:46.145Z,17.33
2019-04-27T04:16:20.334Z,18.40
2019-04-27T04:18:54.566Z,17.63
2019-04-27T04:21:23.859Z,17.50
2019-04-27T04:23:53.152Z,19.02
2019-04-27T04:26:22.348Z,19.48
2019-04-27T04:28:51.582Z,19.85
2019-04-27T04:31:21.148Z,19.02
2019-04-27T04:33:50.247Z,19.37
2019-04-27T04:36:20.148Z,19.75
2019-04-27T04:38:50.429Z,23.15
2019-04-27T04:41:25.476Z,20.30
2019-04-27T04:44:00.219Z,20.92
2019-04-27T04:47:06.078Z,22.17
2019-04-27T04:49:35.315Z,22.05
2019-04-27T04:52:04.521Z,23.50
2019-04-27T04:54:33.758Z,22.82
2019-04-27T04:57:03.010Z,22.35
2019-04-27T04:59:32.301Z,22.75
2019-04-27T05:02:02.389Z,22.80
2019-04-27T05:04:30.733Z,21.52
2019-04-27T05:06:59.925Z,23.07
2019-04-27T05:09:30.454Z,22.65
2019-04-27T05:11:59.658Z,22.52
2019-04-27T05:14:29.027Z,22.90
2019-04-27T05:17:03.586Z,23.67
2019-04-27T05:19:34.293Z,21.95
2019-04-27T05:22:03.957Z,20.85
2019-04-27T05:24:33.231Z,21.33
2019-04-27T05:27:03.854Z,19.87
2019-04-27T05:29:33.132Z,18.87
2019-04-27T05:32:02.387Z,16.27
2019-04-27T05:34:31.924Z,15.65
2019-04-27T05:37:01.240Z,16.40
2019-04-27T05:39:31.832Z,13.68
2019-04-27T05:42:01.114Z,12.55
2019-04-27T05:44:45.618Z,11.95
2019-04-27T05:47:13.778Z,12.37
2019-04-27T05:49:46.400Z,11.88
2019-04-27T05:52:30.946Z,12.53
2019-04-27T05:55:01.486Z,11.78
2019-04-27T05:57:31.320Z,10.58
2019-04-27T06:00:02.205Z,11.93
2019-04-27T06:02:31.158Z,12.10
2019-04-27T06:05:00.435Z,12.15
2019-04-27T06:07:32.209Z,12.63
2019-04-27T06:10:01.496Z,13.05
2019-04-27T06:12:33.258Z,12.78
2019-04-27T06:15:02.548Z,12.33
2019-04-27T06:17:31.924Z,12.33
2019-04-27T06:20:01.252Z,12.70
2019-04-27T06:22:30.531Z,12.78
2019-04-27T06:25:00.554Z,12.47
2019-04-27T06:27:31.079Z,12.35
2019-04-27T06:30:04.702Z,12.82
2019-04-27T06:32:30.781Z,12.28
2019-04-27T06:35:00.933Z,13.25
2019-04-27T06:37:31.454Z,12.15
2019-04-27T06:40:00.958Z,12.78
2019-04-27T06:42:30.277Z,12.78
2019-04-27T06:45:00.031Z,12.55
2019-04-27T06:47:32.653Z,12.82
2019-04-27T06:50:01.845Z,12.58
2019-04-27T06:52:33.504Z,13.18
2019-04-27T06:55:02.722Z,12.63
2019-04-27T06:57:31.921Z,13.05
2019-04-27T07:00:02.428Z,12.45
2019-04-27T07:02:33.963Z,13.93
2019-04-27T07:05:04.401Z,13.05
2019-04-27T07:07:33.684Z,13.32
2019-04-27T07:10:02.928Z,14.35
2019-04-27T07:12:32.254Z,14.25
2019-04-27T07:15:01.450Z,12.65
2019-04-27T07:17:30.724Z,13.65
2019-04-27T07:19:59.958Z,13.98
2019-04-27T07:22:29.860Z,15.50
2019-04-27T07:25:02.094Z,15.10
2019-04-27T07:27:39.425Z,15.93
2019-04-27T07:30:11.937Z,18.62
2019-04-27T07:32:38.940Z,16.30
2019-04-27T07:35:06.623Z,15.05
2019-04-27T07:37:35.869Z,25.25
2019-04-27T07:40:09.056Z,38.50
2019-04-27T07:42:36.844Z,15.80
2019-04-27T07:45:13.793Z,17.85
2019-04-27T07:47:44.665Z,15.28
2019-04-27T07:50:14.004Z,14.83
2019-04-27T07:52:43.237Z,17.57
2019-04-27T07:55:12.481Z,16.50
2019-04-27T07:57:42.936Z,16.00
2019-04-27T08:00:13.426Z,15.88
2019-04-27T08:02:42.673Z,16.50
2019-04-27T08:05:11.944Z,16.05
2019-04-27T08:07:41.208Z,16.82
2019-04-27T08:10:10.422Z,17.92
2019-04-27T08:12:39.640Z,18.00
2019-04-27T08:15:10.100Z,18.32
2019-04-27T08:17:42.856Z,18.00
2019-04-27T08:20:11.129Z,18.42
2019-04-27T08:22:40.476Z,19.27
2019-04-27T08:25:09.741Z,19.60
2019-04-27T08:27:43.520Z,19.60
2019-04-27T08:30:22.049Z,19.37
2019-04-27T08:32:51.623Z,19.98
2019-04-27T08:35:20.855Z,21.57
2019-04-27T08:37:50.768Z,20.40
2019-04-27T08:40:22.527Z,21.05
2019-04-27T08:42:51.935Z,21.33
2019-04-27T08:45:21.332Z,20.43
2019-04-27T08:47:51.883Z,19.82
2019-04-27T08:50:21.162Z,19.40
2019-04-27T08:52:50.503Z,19.42
2019-04-27T08:55:21.038Z,17.62
2019-04-27T08:57:51.792Z,18.70
2019-04-27T09:00:21.110Z,18.55
2019-04-27T09:02:51.769Z,17.82
2019-04-27T09:05:25.697Z,17.82
2019-04-27T09:08:03.248Z,21.25
2019-04-27T09:10:40.938Z,19.15
2019-04-27T09:14:20.843Z,19.12
2019-04-27T09:17:00.270Z,19.75
2019-04-27T09:19:32.602Z,20.15
2019-04-27T09:22:12.478Z,19.80
2019-04-27T09:24:31.912Z,20.20
2019-04-27T09:30:35.178Z,19.62
2019-04-27T09:33:04.866Z,20.30
2019-04-27T09:35:35.619Z,19.45
2019-04-27T09:38:03.657Z,21.97
2019-04-27T09:40:33.290Z,18.80
2019-04-27T09:43:02.546Z,18.98
2019-04-27T09:45:33.044Z,20.37
2019-04-27T09:48:02.417Z,18.87
2019-04-27T09:50:33.152Z,19.00
2019-04-27T09:53:02.448Z,19.95
2019-04-27T09:55:33.012Z,20.80
2019-04-27T09:58:02.248Z,20.17
2019-04-27T10:00:31.565Z,18.37
2019-04-27T10:03:00.876Z,20.43
2019-04-27T10:05:31.470Z,21.23
2019-04-27T10:08:00.674Z,19.15
2019-04-27T10:10:29.943Z,20.12
2019-04-27T10:12:59.240Z,19.20
2019-04-27T10:15:28.532Z,20.08
2019-04-27T10:17:58.279Z,19.80
2019-04-27T10:20:27.538Z,21.48
2019-04-27T10:22:57.960Z,21.97
2019-04-27T10:25:28.113Z,21.77
2019-04-27T10:27:58.243Z,21.10
2019-04-27T10:30:27.738Z,20.55
2019-04-27T10:32:56.949Z,20.60
2019-04-27T10:35:26.710Z,19.92
2019-04-27T10:37:58.504Z,18.55
2019-04-27T10:40:27.741Z,19.00
2019-04-27T10:42:57.031Z,17.07
2019-04-27T10:45:26.297Z,15.25
2019-04-27T10:47:56.290Z,16.42
2019-04-27T10:50:26.519Z,17.67
2019-04-27T10:52:58.952Z,16.67
2019-04-27T10:55:26.158Z,15.68
2019-04-27T10:57:54.076Z,14.28
2019-04-27T11:00:29.930Z,15.40
2019-04-27T11:03:00.295Z,17.70
2019-04-27T11:05:33.853Z,16.57
2019-04-27T11:08:03.166Z,15.35
2019-04-27T11:10:32.393Z,16.30
2019-04-27T11:13:01.613Z,16.17
2019-04-27T11:15:32.096Z,15.18
2019-04-27T11:18:01.301Z,16.12
2019-04-27T11:20:30.644Z,16.75
2019-04-27T11:23:07.044Z,15.68
2019-04-27T11:25:30.446Z,16.30
2019-04-27T11:27:59.756Z,19.12
2019-04-27T11:30:28.981Z,18.85
2019-04-27T11:32:59.461Z,18.20
2019-04-27T11:35:35.338Z,16.97
2019-04-27T11:38:05.596Z,18.00
2019-04-27T11:40:36.684Z,17.10
2019-04-27T11:43:05.935Z,18.77
2019-04-27T11:45:39.376Z,18.80
2019-04-27T11:48:08.597Z,17.92
2019-04-27T11:50:41.558Z,17.42
2019-04-27T11:53:20.744Z,18.70
2019-04-27T11:55:41.292Z,18.25
2019-04-27T11:58:10.493Z,16.93
2019-04-27T12:00:39.709Z,16.00
2019-04-27T12:03:08.930Z,16.00
2019-04-27T12:05:39.403Z,15.30
2019-04-27T12:08:08.644Z,13.98
2019-04-27T12:10:37.862Z,15.58
2019-04-27T12:13:07.683Z,14.60
2019-04-27T12:15:36.370Z,15.03
2019-04-27T12:18:08.852Z,13.65
2019-04-27T12:20:36.237Z,14.95
2019-04-27T12:23:06.708Z,13.30
2019-04-27T12:25:37.413Z,13.53
2019-04-27T12:28:09.494Z,13.20
2019-04-27T12:30:44.333Z,11.95
2019-04-27T12:33:13.622Z,11.65
2019-04-27T12:35:42.822Z,12.03
2019-04-27T12:38:12.993Z,12.25
2019-04-27T12:40:46.519Z,11.97
2019-04-27T12:43:14.028Z,12.70
2019-04-27T12:45:43.669Z,11.83
2019-04-27T12:48:12.529Z,11.25
2019-04-27T12:50:42.158Z,11.78
2019-04-27T12:53:14.746Z,11.50
2019-04-27T12:56:06.634Z,11.33
2019-04-27T12:58:39.318Z,10.28
2019-04-27T13:01:09.648Z,10.70
2019-04-27T13:03:38.873Z,12.15
2019-04-27T13:06:08.080Z,11.05
2019-04-27T13:08:37.314Z,11.68
2019-04-27T13:11:06.658Z,11.78
2019-04-27T13:13:36.787Z,11.45
2019-04-27T13:16:06.556Z,9.75
2019-04-27T13:18:36.016Z,10.60
2019-04-27T13:21:03.587Z,10.35
2019-04-27T13:23:34.089Z,10.13
2019-04-27T13:26:03.291Z,11.15
2019-04-27T13:28:32.502Z,11.18
2019-04-27T13:31:01.729Z,10.98
2019-04-27T13:33:32.264Z,10.10
2019-04-27T13:36:01.483Z,9.88
2019-04-27T13:38:30.789Z,11.53
2019-04-27T13:41:06.189Z,10.48
2019-04-27T13:43:36.144Z,11.57
2019-04-27T13:46:43.437Z,12.82
2019-04-27T13:49:49.465Z,10.55
2019-04-27T13:52:22.352Z,10.60
2019-04-27T13:54:52.812Z,10.90
2019-04-27T13:57:22.005Z,10.25
2019-04-27T13:59:51.683Z,10.48
2019-04-27T14:02:21.515Z,10.40
2019-04-27T14:04:52.189Z,11.10
2019-04-27T14:07:21.430Z,11.00
2019-04-27T14:09:50.659Z,13.40
2019-04-27T14:12:21.329Z,12.45
2019-04-27T14:14:49.816Z,11.10
2019-04-27T14:17:19.402Z,11.68
2019-04-27T14:19:48.440Z,11.25
2019-04-27T14:22:18.236Z,11.55
2019-04-27T14:24:48.576Z,11.93
2019-04-27T14:27:16.537Z,10.88
2019-04-27T14:29:45.749Z,12.03
2019-04-27T14:32:16.267Z,12.05
2019-04-27T14:34:50.087Z,12.10
2019-04-27T14:37:18.587Z,12.13
2019-04-27T14:39:46.666Z,12.13
2019-04-27T14:42:19.110Z,12.78
2019-04-27T14:44:48.971Z,11.95
2019-04-27T14:47:18.850Z,12.60
2019-04-27T14:49:49.065Z,12.13
2019-04-27T14:52:18.683Z,11.40
2019-04-27T14:54:48.825Z,11.05
2019-04-27T14:57:18.403Z,11.75
2019-04-27T14:59:46.442Z,10.80
2019-04-27T15:02:18.465Z,12.63
2019-04-27T15:04:47.363Z,12.10
2019-04-27T15:07:17.951Z,11.33
2019-04-27T15:09:49.784Z,11.43
2019-04-27T15:12:16.791Z,10.30
2019-04-27T15:14:45.991Z,12.68
2019-04-27T15:17:17.625Z,13.32
2019-04-27T15:19:52.743Z,12.43
2019-04-27T15:22:23.126Z,13.13
2019-04-27T15:25:06.444Z,12.85
2019-04-27T15:27:22.392Z,12.82
2019-04-27T15:29:51.655Z,11.30
2019-04-27T15:32:25.243Z,13.15
2019-04-27T15:35:05.263Z,11.73
2019-04-27T15:37:35.425Z,12.15
2019-04-27T15:40:12.964Z,12.78
2019-04-27T15:42:51.717Z,12.13
2019-04-27T15:45:20.567Z,13.57
2019-04-27T15:47:50.857Z,12.80
2019-04-27T15:50:16.046Z,12.97
2019-04-27T15:52:46.509Z,13.13
2019-04-27T15:55:31.800Z,12.88
2019-04-27T15:57:50.335Z,12.30
2019-04-27T16:00:22.869Z,13.20
2019-04-27T16:02:53.288Z,13.07
2019-04-27T16:05:23.628Z,13.70
2019-04-27T16:07:51.753Z,15.00
2019-04-27T16:10:22.334Z,15.13
2019-04-27T16:13:05.814Z,15.80
2019-04-27T16:15:20.882Z,14.90
2019-04-27T16:17:55.897Z,15.37
2019-04-27T16:20:29.158Z,15.20
2019-04-27T16:22:56.659Z,17.07
2019-04-27T16:25:28.223Z,15.40
2019-04-27T16:27:54.355Z,15.67
2019-04-27T16:30:23.561Z,16.30
2019-04-27T16:32:54.014Z,15.87
2019-04-27T16:35:24.455Z,15.53
2019-04-27T16:38:00.500Z,14.70
2019-04-27T16:40:34.726Z,14.50
2019-04-27T16:43:03.982Z,14.93
2019-04-27T16:45:33.190Z,15.20
2019-04-27T16:48:02.452Z,13.87
2019-04-27T16:50:31.933Z,15.93
2019-04-27T16:53:01.245Z,15.37
2019-04-27T16:55:34.124Z,14.83
2019-04-27T16:58:00.954Z,13.67
2019-04-27T17:00:30.503Z,12.67
2019-04-27T17:03:02.712Z,12.70
2019-04-27T17:05:34.264Z,12.60
2019-04-27T17:07:58.155Z,12.17
2019-04-27T17:10:29.115Z,13.27
2019-04-27T17:12:59.190Z,74.20
2019-04-27T17:15:32.578Z,35.93
2019-04-27T17:19:12.408Z,35.13
2019-04-27T17:21:41.178Z,18.40
2019-04-27T17:24:09.109Z,13.13
2019-04-27T17:26:42.366Z,11.93
2019-04-27T17:29:16.133Z,12.93
2019-04-27T17:31:39.445Z,12.87
2019-04-27T17:34:08.805Z,10.73
2019-04-27T17:36:40.301Z,9.47
2019-04-27T17:39:10.608Z,9.10
2019-04-27T17:41:42.090Z,10.13
2019-04-27T17:44:12.664Z,9.47
2019-04-27T17:46:42.753Z,10.13
2019-04-27T17:49:09.222Z,9.53
2019-04-27T17:51:40.621Z,9.93
2019-04-27T17:54:11.216Z,10.23
2019-04-27T17:56:48.339Z,8.60
2019-04-27T17:59:11.975Z,8.00
2019-04-27T18:01:38.900Z,8.77
2019-04-27T18:04:10.467Z,7.63
2019-04-27T18:06:39.064Z,8.87
2019-04-27T18:09:12.534Z,7.20
2019-04-27T18:11:41.763Z,8.50
2019-04-27T18:14:14.418Z,7.00
2019-04-27T18:16:42.331Z,7.43
2019-04-27T18:19:18.519Z,7.60
2019-04-27T18:21:56.742Z,8.07
2019-04-27T18:24:25.022Z,7.37
2019-04-27T18:27:03.033Z,7.60
2019-04-27T18:29:30.829Z,7.17
2019-04-27T18:32:00.802Z,7.83
2019-04-27T18:34:29.974Z,7.83
2019-04-27T18:37:03.991Z,8.47
2019-04-27T18:39:30.288Z,8.07
2019-04-27T18:41:59.494Z,8.33
2019-04-27T18:44:31.807Z,7.10
2019-04-27T18:47:02.068Z,7.63
2019-04-27T18:49:38.638Z,7.23
2019-04-27T18:52:13.909Z,7.43
2019-04-27T18:54:43.081Z,7.97
2019-04-27T18:57:15.254Z,8.67
2019-04-27T18:59:42.740Z,8.73
2019-04-27T19:02:11.983Z,8.63
2019-04-27T19:04:41.275Z,8.27
2019-04-27T19:07:10.456Z,8.27
2019-04-27T19:09:41.008Z,7.63
2019-04-27T19:12:10.592Z,8.03
2019-04-27T19:14:40.982Z,7.27
2019-04-27T19:17:12.203Z,7.90
2019-04-27T19:19:41.385Z,8.50
2019-04-27T19:22:10.561Z,7.63
2019-04-27T19:24:39.769Z,7.77
2019-04-27T19:27:20.924Z,7.33
2019-04-27T19:29:53.231Z,7.07
2019-04-27T19:32:22.468Z,7.37
2019-04-27T19:34:52.197Z,8.67
2019-04-27T19:37:21.423Z,7.43
2019-04-27T19:39:50.717Z,7.60
2019-04-27T19:42:20.272Z,7.70
2019-04-27T19:44:49.077Z,7.33
2019-04-27T19:47:18.309Z,6.93
2019-04-27T19:49:47.604Z,7.00
2019-04-27T19:52:18.392Z,7.10
2019-04-27T19:54:51.079Z,7.17
2019-04-27T19:57:31.862Z,7.10
2019-04-27T19:59:52.823Z,7.10
2019-04-27T20:02:22.000Z,8.20
2019-04-27T20:04:56.984Z,6.83
2019-04-27T20:07:28.424Z,6.20
2019-04-27T20:09:58.483Z,6.80
2019-04-27T20:12:27.606Z,6.20
2019-04-27T20:14:56.837Z,6.00
2019-04-27T20:17:26.990Z,6.57
2019-04-27T20:19:56.742Z,6.73
2019-04-27T20:22:25.927Z,6.40
2019-04-27T20:24:58.753Z,6.53
2019-04-27T20:27:32.152Z,6.17
2019-04-27T20:30:00.665Z,6.17
2019-04-27T20:32:31.432Z,5.83
2019-04-27T20:35:01.339Z,6.13
2019-04-27T20:37:28.868Z,6.57
2019-04-27T20:40:01.208Z,5.70
2019-04-27T20:42:28.977Z,5.67
2019-04-27T20:44:58.257Z,5.77
2019-04-27T20:47:29.922Z,5.63
2019-04-27T20:49:59.217Z,5.67
2019-04-27T20:52:35.348Z,5.73
2019-04-27T20:55:04.956Z,5.27
2019-04-27T20:57:34.132Z,5.03
2019-04-27T21:00:03.388Z,5.13
2019-04-27T21:02:37.650Z,7.63
2019-04-27T21:05:12.612Z,5.40
2019-04-27T21:07:43.312Z,6.20
2019-04-27T21:10:12.569Z,9.97
2019-04-27T21:12:41.787Z,6.87
2019-04-27T21:15:12.936Z,6.23
2019-04-27T21:17:40.673Z,5.10
2019-04-27T21:20:11.781Z,4.33
2019-04-27T21:22:38.856Z,4.90
2019-04-27T21:25:08.053Z,4.10
2019-04-27T21:27:37.244Z,4.50
2019-04-27T21:30:06.473Z,3.83
2019-04-27T21:32:35.661Z,3.90
2019-04-27T21:35:04.920Z,3.50
2019-04-27T21:37:34.146Z,3.30
2019-04-27T21:40:10.481Z,4.10
2019-04-27T21:42:38.053Z,3.70
2019-04-27T21:45:07.227Z,4.00
2019-04-27T21:47:37.643Z,4.10
2019-04-27T21:50:06.800Z,4.10
2019-04-27T21:52:36.232Z,4.43
2019-04-27T21:55:05.497Z,4.47
2019-04-27T21:57:34.676Z,4.47
2019-04-27T22:00:04.247Z,4.30
2019-04-27T22:02:33.422Z,4.20
2019-04-27T22:05:06.271Z,3.63
2019-04-27T22:07:37.561Z,4.33
2019-04-27T22:10:05.908Z,4.30
2019-04-27T22:12:36.445Z,4.03
2019-04-27T22:15:05.617Z,4.33
2019-04-27T22:17:34.780Z,3.77
2019-04-27T22:20:05.421Z,4.47
2019-04-27T22:22:38.954Z,3.83
2019-04-27T22:25:11.571Z,4.27
2019-04-27T22:27:41.353Z,4.33
2019-04-27T22:30:11.062Z,4.33
2019-04-27T22:32:41.417Z,4.40
2019-04-27T22:35:09.366Z,4.40
2019-04-27T22:37:38.618Z,4.47
2019-04-27T22:40:13.106Z,3.73
2019-04-27T22:42:51.635Z,4.70
2019-04-27T22:45:25.073Z,5.13
2019-04-27T22:47:54.252Z,4.57
2019-04-27T22:50:23.469Z,4.00
2019-04-27T22:52:52.649Z,3.93
2019-04-27T22:55:22.067Z,3.70
2019-04-27T22:57:55.584Z,4.03
2019-04-27T23:00:38.199Z,3.33
2019-04-27T23:03:10.934Z,3.37
2019-04-27T23:05:38.436Z,3.93
2019-04-27T23:08:08.848Z,3.60
2019-04-27T23:10:38.057Z,4.10
2019-04-27T23:13:07.243Z,3.83
2019-04-27T23:15:41.186Z,4.07
2019-04-27T23:18:09.158Z,3.50
2019-04-27T23:20:38.318Z,4.07
2019-04-27T23:23:07.524Z,3.87
2019-04-27T23:25:36.685Z,3.80
2019-04-27T23:28:07.013Z,4.77
2019-04-27T23:30:42.617Z,4.17
2019-04-27T23:33:11.801Z,3.60
2019-04-27T23:35:41.378Z,3.73
2019-04-27T23:38:17.541Z,4.07
2019-04-27T23:40:39.473Z,4.40
2019-04-27T23:43:08.667Z,3.80
2019-04-27T23:45:37.849Z,3.67
2019-04-27T23:48:07.154Z,3.63
2019-04-27T23:50:36.546Z,4.23
2019-04-27T23:53:11.839Z,3.20
2019-04-27T23:55:41.931Z,3.07
2019-04-27T23:58:09.502Z,3.67
